Crystal, Indiana
Current Conditions -  °F | °C
As of 12:35 AM on Sunday 21 Dec 2014 (Local Time) from KHNB Reporting Station
Clear Clear  
Wind Chill: 25°   Ceiling: Unl
Heat Index: 25°   Visibility: 4mi
Dew Point: 19°   Wind: 0mph
Humidity: 80%   Direction: NA
Pressure: 30.29"   Gusts: NA
Location:  38.4736°N, 86.7813°W
Report Text: KHNB 210635Z AUTO 00000KT 4SM CLR M04/M07 A3029 RMK AO1
Loading
Personal Weather Stations






























Interactive Weather Map New forecast layout! Learn more

10-Day Weather Forecast

Advertisements
Track Severe Weather on mobile